Time;durP1;ratioP1;P1;durP2;ratioP2;P2;SDS_P1;SDS_P2;PMS_P1;PMS_P2;Temp;Humidity;BMP_temperature;BMP_pressure;BME280_temperature;BME280_humidity;BME280_pressure;Samples;Min_cycle;Max_cycle;Signal;HPM_P1;HPM_P2
2023/12/25 00:02:02;;;;;;;4.80;4.10;;;21.50;93.70;;;;;;5024822;28;21484;-87
2023/12/25 00:04:29;;;;;;;5.30;4.63;;;21.50;93.30;;;;;;5031303;28;24073;-86
2023/12/25 00:06:56;;;;;;;8.83;3.80;;;21.50;93.10;;;;;;5025202;28;20549;-86
2023/12/25 00:09:23;;;;;;;6.40;4.07;;;21.50;93.40;;;;;;5022529;28;20489;-88
2023/12/25 00:11:50;;;;;;;6.10;4.20;;;21.70;94.80;;;;;;5023622;28;20488;-86
2023/12/25 00:14:18;;;;;;;5.77;3.37;;;21.40;93.70;;;;;;5026508;28;20457;-86
2023/12/25 00:16:46;;;;;;;6.60;4.37;;;21.40;93.40;;;;;;5027373;28;20489;-85
2023/12/25 00:19:17;;;;;;;4.60;4.13;;;21.60;93.60;;;;;;5021608;28;20457;-86
2023/12/25 00:21:43;;;;;;;5.33;4.17;;;21.40;93.60;;;;;;5022063;28;20460;-86
2023/12/25 00:24:10;;;;;;;6.13;3.90;;;21.40;93.70;;;;;;5022094;28;20829;-88
2023/12/25 00:26:40;;;;;;;6.63;4.27;;;21.50;93.70;;;;;;5029831;28;20458;-87
2023/12/25 00:29:07;;;;;;;4.57;3.40;;;21.40;93.70;;;;;;5026964;28;20458;-83
2023/12/25 00:31:33;;;;;;;4.90;2.93;;;21.50;93.50;;;;;;5027290;28;21139;-83
2023/12/25 00:34:02;;;;;;;7.93;4.03;;;21.50;93.40;;;;;;5020901;28;20462;-86
2023/12/25 00:36:28;;;;;;;8.30;4.17;;;21.50;93.50;;;;;;5020416;28;21082;-85
2023/12/25 00:38:55;;;;;;;6.27;4.40;;;21.50;93.00;;;;;;5022934;28;20461;-84
2023/12/25 00:41:23;;;;;;;16.53;5.40;;;21.50;93.00;;;;;;5026716;28;20458;-88
2023/12/25 00:43:50;;;;;;;11.10;5.77;;;21.50;92.80;;;;;;5024833;28;20487;-88
2023/12/25 00:46:18;;;;;;;12.30;5.13;;;21.50;92.90;;;;;;5026860;28;20465;-85
2023/12/25 00:48:44;;;;;;;8.97;5.10;;;21.50;92.80;;;;;;5018702;28;20473;-90
2023/12/25 00:51:12;;;;;;;13.67;5.13;;;21.50;92.80;;;;;;5016307;28;20466;-90
2023/12/25 00:53:39;;;;;;;16.33;5.80;;;21.50;92.70;;;;;;5009608;28;20738;-82
2023/12/25 00:56:08;;;;;;;18.10;6.80;;;21.40;92.70;;;;;;5013892;28;21004;-83
2023/12/25 00:58:35;;;;;;;10.20;4.97;;;21.40;93.30;;;;;;5011304;28;20675;-82
2023/12/25 01:01:02;;;;;;;15.33;5.97;;;21.40;92.90;;;;;;5016613;28;20453;-82
2023/12/25 01:03:29;;;;;;;10.50;5.40;;;21.40;92.50;;;;;;5020158;28;21053;-83
2023/12/25 01:05:56;;;;;;;14.57;7.20;;;21.40;92.40;;;;;;5018148;28;20458;-83
2023/12/25 01:08:27;;;;;;;13.30;5.30;;;21.40;92.60;;;;;;5014843;28;20450;-83
2023/12/25 01:10:53;;;;;;;15.33;5.87;;;21.40;92.60;;;;;;5018702;28;21110;-83
2023/12/25 01:13:20;;;;;;;14.17;5.70;;;21.30;92.40;;;;;;5019237;28;20458;-84
2023/12/25 01:15:47;;;;;;;9.60;5.50;;;21.30;92.20;;;;;;5024525;28;20469;-84
2023/12/25 01:18:14;;;;;;;7.83;4.43;;;21.30;92.50;;;;;;5019737;28;21010;-86
2023/12/25 01:20:41;;;;;;;8.47;4.60;;;21.30;92.40;;;;;;5015670;28;20909;-85
2023/12/25 01:23:07;;;;;;;11.60;5.13;;;21.30;92.30;;;;;;5017986;28;20465;-82
2023/12/25 01:25:36;;;;;;;14.13;5.80;;;21.30;92.40;;;;;;5017213;28;20451;-86
2023/12/25 01:28:02;;;;;;;8.73;5.95;;;21.30;92.70;;;;;;5017097;28;20469;-82
2023/12/25 01:30:29;;;;;;;12.43;5.43;;;21.30;92.50;;;;;;5011403;28;20199;-85
2023/12/25 01:32:56;;;;;;;9.23;5.05;;;21.30;92.60;;;;;;5007801;28;20462;-84
2023/12/25 01:35:23;;;;;;;10.63;4.90;;;21.30;92.60;;;;;;5012088;28;20873;-85
2023/12/25 01:37:50;;;;;;;16.00;6.60;;;21.20;93.10;;;;;;5008687;28;22300;-83
2023/12/25 01:40:17;;;;;;;12.07;5.50;;;21.30;92.80;;;;;;5018908;28;20464;-85
2023/12/25 01:42:45;;;;;;;6.40;4.07;;;21.20;92.40;;;;;;5015684;28;20923;-84
2023/12/25 01:45:12;;;;;;;8.88;4.53;;;21.20;92.60;;;;;;5013424;28;20470;-83
2023/12/25 01:47:40;;;;;;;24.83;5.40;;;21.20;92.70;;;;;;5017211;28;20222;-83
2023/12/25 01:50:08;;;;;;;9.90;4.30;;;21.20;92.60;;;;;;5017001;28;20449;-84
2023/12/25 01:52:34;;;;;;;8.77;5.07;;;21.20;92.50;;;;;;5011467;28;21188;-85
2023/12/25 01:55:02;;;;;;;6.80;4.83;;;21.10;92.40;;;;;;5018121;28;21110;-84
2023/12/25 01:57:32;;;;;;;8.00;4.50;;;21.20;92.30;;;;;;5015835;28;20550;-84
2023/12/25 02:00:00;;;;;;;11.40;5.00;;;21.20;92.30;;;;;;5017818;28;20572;-84
2023/12/25 02:02:27;;;;;;;7.60;4.60;;;21.10;92.50;;;;;;5016955;28;20462;-85
2023/12/25 02:04:53;;;;;;;8.55;4.43;;;21.10;92.40;;;;;;5019550;28;20794;-85
2023/12/25 02:07:21;;;;;;;6.30;4.00;;;21.10;92.30;;;;;;5014362;28;20215;-85
2023/12/25 02:09:49;;;;;;;9.43;5.07;;;21.10;92.20;;;;;;5016357;28;20470;-84
2023/12/25 02:12:16;;;;;;;9.70;5.00;;;21.10;92.10;;;;;;5016640;28;20454;-86
2023/12/25 02:14:43;;;;;;;7.47;4.70;;;21.10;92.30;;;;;;5015622;28;21219;-85
2023/12/25 02:17:12;;;;;;;6.60;4.10;;;21.00;92.30;;;;;;5018028;28;20469;-86
2023/12/25 02:19:41;;;;;;;9.47;4.30;;;21.00;92.20;;;;;;5017319;28;20469;-86
2023/12/25 02:22:08;;;;;;;6.45;4.18;;;21.00;92.00;;;;;;5015160;28;20462;-87
2023/12/25 02:24:42;;;;;;;7.88;4.30;;;21.00;92.20;;;;;;5014171;28;20209;-87
2023/12/25 02:27:10;;;;;;;6.23;3.70;;;21.00;92.10;;;;;;5017331;28;20191;-86
2023/12/25 02:29:37;;;;;;;11.13;4.65;;;20.90;92.00;;;;;;5015930;28;20462;-86
2023/12/25 02:32:04;;;;;;;7.15;4.10;;;21.00;91.90;;;;;;5015915;28;20202;-86
2023/12/25 02:34:30;;;;;;;8.90;4.53;;;20.90;91.80;;;;;;5017278;28;20204;-87
2023/12/25 02:36:57;;;;;;;6.20;3.87;;;20.90;91.90;;;;;;5017588;28;20681;-87
2023/12/25 02:39:24;;;;;;;7.97;4.57;;;20.90;92.00;;;;;;5017458;28;20468;-87
2023/12/25 02:41:51;;;;;;;10.15;3.88;;;20.90;91.70;;;;;;5015158;28;20469;-87
2023/12/25 02:44:19;;;;;;;9.40;3.80;;;20.90;91.70;;;;;;5013978;28;20743;-87
2023/12/25 02:46:45;;;;;;;8.25;3.60;;;20.90;91.90;;;;;;5015946;28;21087;-86
2023/12/25 02:49:12;;;;;;;11.77;4.63;;;20.90;91.90;;;;;;5015794;28;20858;-88
2023/12/25 02:51:39;;;;;;;8.85;3.72;;;20.90;92.00;;;;;;5011607;28;20234;-87
2023/12/25 02:54:06;;;;;;;7.10;4.10;;;20.90;91.80;;;;;;5015691;28;20210;-87
2023/12/25 02:56:32;;;;;;;10.83;4.00;;;20.90;91.90;;;;;;5013760;28;21032;-86
2023/12/25 02:58:59;;;;;;;8.07;4.88;;;20.80;91.70;;;;;;5012477;28;20827;-87
2023/12/25 03:01:27;;;;;;;5.97;3.83;;;20.80;91.90;;;;;;5014719;28;20698;-87
2023/12/25 03:03:54;;;;;;;7.13;4.53;;;20.80;91.80;;;;;;5013789;28;20200;-85
2023/12/25 03:06:21;;;;;;;5.68;3.50;;;20.80;91.80;;;;;;5013349;28;20215;-87
2023/12/25 03:08:47;;;;;;;9.30;5.20;;;20.80;91.70;;;;;;5017534;28;21472;-86
2023/12/25 03:11:14;;;;;;;6.45;4.00;;;20.80;91.60;;;;;;5014731;28;20457;-86
2023/12/25 03:13:41;;;;;;;7.32;3.55;;;20.80;91.60;;;;;;5008562;28;20745;-87
2023/12/25 03:16:08;;;;;;;6.15;3.90;;;20.80;91.40;;;;;;5014020;28;20743;-87
2023/12/25 03:18:36;;;;;;;7.50;4.20;;;20.70;91.40;;;;;;5014685;28;20218;-86
2023/12/25 03:21:04;;;;;;;7.00;4.35;;;20.70;91.50;;;;;;5013559;28;20203;-87
2023/12/25 03:23:30;;;;;;;4.80;3.67;;;20.70;91.60;;;;;;5014509;28;20651;-84
2023/12/25 03:25:57;;;;;;;7.75;3.72;;;20.70;91.60;;;;;;5014895;28;20454;-85
2023/12/25 03:28:26;;;;;;;6.55;3.45;;;20.70;91.40;;;;;;5014379;28;21117;-85
2023/12/25 03:30:53;;;;;;;5.78;3.08;;;20.70;91.30;;;;;;5017604;28;20310;-83
2023/12/25 03:33:20;;;;;;;9.75;3.95;;;20.70;91.60;;;;;;5016065;28;20200;-84
2023/12/25 03:35:48;;;;;;;6.93;3.70;;;20.60;91.20;;;;;;5016949;28;20203;-85
2023/12/25 03:38:15;;;;;;;6.05;3.80;;;20.60;91.40;;;;;;5018527;28;20220;-84
2023/12/25 03:40:42;;;;;;;7.38;3.67;;;20.60;91.40;;;;;;5014654;28;20247;-84
2023/12/25 03:43:09;;;;;;;6.75;3.72;;;20.60;91.40;;;;;;5018556;28;20204;-84
2023/12/25 03:45:35;;;;;;;5.50;3.33;;;20.60;91.40;;;;;;5022824;28;20199;-84
2023/12/25 03:48:03;;;;;;;4.60;3.60;;;20.60;91.10;;;;;;5020843;28;20473;-84
2023/12/25 03:50:32;;;;;;;5.50;3.90;;;20.60;91.50;;;;;;5018679;28;20301;-84
2023/12/25 03:53:00;;;;;;;7.00;3.57;;;20.50;91.20;;;;;;5016588;28;20214;-84
2023/12/25 03:55:27;;;;;;;4.82;3.42;;;20.60;91.30;;;;;;5020365;28;20476;-84
2023/12/25 03:57:54;;;;;;;9.52;3.85;;;20.60;91.30;;;;;;5017376;28;20223;-85
2023/12/25 04:00:21;;;;;;;4.78;3.13;;;20.60;91.30;;;;;;5021169;28;20867;-85
2023/12/25 04:02:47;;;;;;;4.13;3.05;;;20.60;91.30;;;;;;5022561;28;20211;-85
2023/12/25 04:05:15;;;;;;;5.78;3.50;;;20.60;91.30;;;;;;5020701;28;20200;-84
2023/12/25 04:07:41;;;;;;;6.53;3.40;;;20.60;91.20;;;;;;5018808;28;20659;-85
2023/12/25 04:10:10;;;;;;;6.00;3.97;;;20.60;91.00;;;;;;5021300;28;20199;-84
2023/12/25 04:12:40;;;;;;;4.72;3.28;;;20.50;91.40;;;;;;5019468;28;20214;-85
2023/12/25 04:15:07;;;;;;;7.20;3.58;;;20.50;91.30;;;;;;5022906;28;20214;-85
2023/12/25 04:17:34;;;;;;;4.25;3.45;;;20.50;91.30;;;;;;5022526;28;20223;-85
2023/12/25 04:20:01;;;;;;;6.50;4.00;;;20.50;91.20;;;;;;5021798;28;20203;-85
2023/12/25 04:22:28;;;;;;;6.00;3.72;;;20.50;91.50;;;;;;5024203;28;20270;-86
2023/12/25 04:24:55;;;;;;;10.27;4.15;;;20.50;91.30;;;;;;5023224;28;20210;-85
2023/12/25 04:27:23;;;;;;;6.05;3.17;;;20.40;91.20;;;;;;5021395;28;20693;-85
2023/12/25 04:29:49;;;;;;;4.80;3.28;;;20.50;91.20;;;;;;5021643;28;20207;-86
2023/12/25 04:32:16;;;;;;;4.53;3.53;;;20.40;91.20;;;;;;5022473;28;20207;-85
2023/12/25 04:34:43;;;;;;;6.45;2.97;;;20.40;91.30;;;;;;5022208;28;20203;-86
2023/12/25 04:37:10;;;;;;;4.82;3.10;;;20.40;91.40;;;;;;5020085;28;20231;-86
2023/12/25 04:39:37;;;;;;;4.40;3.08;;;20.40;91.30;;;;;;5020150;28;21128;-86
2023/12/25 04:42:04;;;;;;;7.47;3.60;;;20.40;91.10;;;;;;5020520;28;20199;-86
2023/12/25 04:44:32;;;;;;;7.05;3.30;;;20.40;91.30;;;;;;5020298;28;20457;-86
2023/12/25 04:46:58;;;;;;;5.60;2.87;;;20.40;91.10;;;;;;5017356;28;20202;-87
2023/12/25 04:49:25;;;;;;;5.95;3.17;;;20.40;91.20;;;;;;5017181;28;20469;-87
2023/12/25 04:51:52;;;;;;;6.75;3.65;;;20.40;91.20;;;;;;5015018;28;21140;-86
2023/12/25 04:54:19;;;;;;;5.50;2.60;;;20.40;91.20;;;;;;5016365;28;20203;-86
2023/12/25 04:56:45;;;;;;;9.70;3.50;;;20.40;91.10;;;;;;5009893;28;20203;-87
2023/12/25 04:59:12;;;;;;;5.43;3.25;;;20.40;91.00;;;;;;5021328;28;20261;-87
2023/12/25 05:01:40;;;;;;;4.55;2.40;;;20.30;91.10;;;;;;5014271;28;20203;-86
2023/12/25 05:04:07;;;;;;;5.25;3.13;;;20.30;91.50;;;;;;5017355;28;20215;-86
2023/12/25 05:06:34;;;;;;;4.45;3.08;;;20.30;91.10;;;;;;5013937;28;20195;-86
2023/12/25 05:09:01;;;;;;;3.63;2.57;;;20.30;91.40;;;;;;5015871;28;20204;-87
2023/12/25 05:11:28;;;;;;;3.15;2.60;;;20.30;91.20;;;;;;5014086;28;21224;-86
2023/12/25 05:13:54;;;;;;;5.53;3.00;;;20.30;91.10;;;;;;5014855;28;21113;-86
2023/12/25 05:16:21;;;;;;;5.18;2.60;;;20.30;91.20;;;;;;5016165;28;20210;-86
2023/12/25 05:18:49;;;;;;;3.90;3.20;;;20.30;91.20;;;;;;5014257;28;20210;-86
2023/12/25 05:21:16;;;;;;;5.18;2.72;;;20.30;91.30;;;;;;5015817;28;20199;-86
2023/12/25 05:23:43;;;;;;;5.00;3.35;;;20.30;91.20;;;;;;5014525;28;20204;-86
2023/12/25 05:26:10;;;;;;;5.00;2.72;;;20.30;91.20;;;;;;5013646;28;20208;-85
2023/12/25 05:28:36;;;;;;;5.25;3.47;;;20.20;91.10;;;;;;5014014;28;20195;-86
2023/12/25 05:31:03;;;;;;;4.45;2.88;;;20.20;91.10;;;;;;5015571;28;20210;-86
2023/12/25 05:33:30;;;;;;;4.32;2.90;;;20.20;91.30;;;;;;5014859;28;20195;-86
2023/12/25 05:35:58;;;;;;;4.75;3.65;;;20.20;91.30;;;;;;5015526;28;20203;-87
2023/12/25 05:38:25;;;;;;;7.40;2.90;;;20.20;91.40;;;;;;5018693;28;20891;-86
2023/12/25 05:40:52;;;;;;;4.68;3.30;;;20.20;91.00;;;;;;5011692;28;20219;-86
2023/12/25 05:43:18;;;;;;;4.47;2.90;;;20.20;91.10;;;;;;5013864;28;20199;-86
2023/12/25 05:45:46;;;;;;;3.72;2.83;;;20.20;91.30;;;;;;5018597;28;21138;-85
2023/12/25 05:48:13;;;;;;;5.00;3.03;;;20.20;91.20;;;;;;5015499;28;20233;-85
2023/12/25 05:50:40;;;;;;;4.65;2.50;;;20.20;91.40;;;;;;5016400;28;20216;-83
2023/12/25 05:53:07;;;;;;;4.50;2.88;;;20.20;91.10;;;;;;5012865;28;20206;-83
2023/12/25 05:55:33;;;;;;;5.63;3.42;;;20.10;91.20;;;;;;5012661;28;20198;-85
2023/12/25 05:58:00;;;;;;;5.15;3.20;;;20.10;91.10;;;;;;5014795;28;20225;-84
2023/12/25 06:00:27;;;;;;;7.85;3.00;;;20.10;91.00;;;;;;5013517;28;20987;-84
2023/12/25 06:02:54;;;;;;;3.67;2.72;;;20.10;91.10;;;;;;5014324;28;20814;-85
2023/12/25 06:05:20;;;;;;;4.63;2.40;;;20.10;91.30;;;;;;5013438;28;20878;-84
2023/12/25 06:07:47;;;;;;;3.47;2.70;;;20.10;91.20;;;;;;5014629;28;20200;-85
2023/12/25 06:10:15;;;;;;;3.03;2.63;;;20.20;91.30;;;;;;5017642;28;20207;-83
2023/12/25 06:12:43;;;;;;;4.47;2.60;;;20.10;91.10;;;;;;5016439;28;20222;-85
2023/12/25 06:15:10;;;;;;;5.85;3.13;;;20.10;91.20;;;;;;5016421;28;20198;-85
2023/12/25 06:17:37;;;;;;;5.53;2.75;;;20.10;91.10;;;;;;5014785;28;20717;-84
2023/12/25 06:20:06;;;;;;;5.13;3.30;;;20.10;91.20;;;;;;5015389;28;20390;-86
2023/12/25 06:22:33;;;;;;;7.45;2.60;;;20.10;91.20;;;;;;5015704;28;20215;-85
2023/12/25 06:24:59;;;;;;;4.00;2.40;;;20.10;91.10;;;;;;5016254;28;20697;-83
2023/12/25 06:27:27;;;;;;;4.65;3.10;;;20.10;91.30;;;;;;5016294;28;20606;-85
2023/12/25 06:29:54;;;;;;;4.05;3.15;;;20.10;91.10;;;;;;5015842;28;21209;-85
2023/12/25 06:32:21;;;;;;;6.55;2.78;;;20.00;91.00;;;;;;5016278;28;20681;-86
2023/12/25 06:34:48;;;;;;;4.15;2.42;;;20.10;91.10;;;;;;5015557;28;20207;-83
2023/12/25 06:37:14;;;;;;;3.70;2.10;;;20.00;91.10;;;;;;5016119;28;20207;-82
2023/12/25 06:39:41;;;;;;;3.67;2.75;;;20.10;91.20;;;;;;5017331;28;20246;-85
2023/12/25 06:42:08;;;;;;;5.18;3.10;;;20.00;91.20;;;;;;5016642;28;20203;-83
2023/12/25 06:44:37;;;;;;;3.08;2.65;;;20.00;91.00;;;;;;5006738;28;20199;-83
2023/12/25 06:47:05;;;;;;;3.53;3.22;;;20.00;90.90;;;;;;5016501;28;20207;-87
2023/12/25 06:49:31;;;;;;;6.18;2.30;;;20.00;90.90;;;;;;5015808;28;20206;-84
2023/12/25 06:51:59;;;;;;;5.03;2.38;;;20.00;91.00;;;;;;5015571;28;20637;-84
2023/12/25 06:54:25;;;;;;;3.08;2.50;;;20.00;91.10;;;;;;5017991;28;21178;-83
2023/12/25 06:56:52;;;;;;;5.10;2.40;;;20.00;91.00;;;;;;5015003;28;20559;-85
2023/12/25 06:59:20;;;;;;;6.10;3.00;;;20.00;91.10;;;;;;5017330;28;20232;-83
2023/12/25 07:01:48;;;;;;;4.25;2.50;;;20.00;91.20;;;;;;5016032;28;20329;-84
2023/12/25 07:04:14;;;;;;;3.20;2.35;;;20.00;91.10;;;;;;5015149;28;20605;-84
2023/12/25 07:06:41;;;;;;;4.63;3.40;;;19.90;91.20;;;;;;5013734;28;20200;-85
2023/12/25 07:09:09;;;;;;;3.42;2.78;;;19.90;91.10;;;;;;5016811;28;20191;-85
2023/12/25 07:11:36;;;;;;;4.78;3.00;;;19.90;90.90;;;;;;5014436;28;21497;-84
2023/12/25 07:14:02;;;;;;;3.58;2.35;;;19.90;91.00;;;;;;5012507;28;21084;-83
2023/12/25 07:16:29;;;;;;;4.28;2.90;;;19.90;91.10;;;;;;5014006;28;20204;-83
2023/12/25 07:18:57;;;;;;;4.13;2.00;;;19.90;91.00;;;;;;5014155;28;20225;-85
2023/12/25 07:21:24;;;;;;;3.17;2.13;;;19.90;91.00;;;;;;5015922;28;20914;-83
2023/12/25 07:23:52;;;;;;;3.08;2.65;;;19.90;91.10;;;;;;5017084;28;20897;-84
2023/12/25 07:26:19;;;;;;;5.57;2.13;;;19.90;91.00;;;;;;5018481;28;20701;-84
2023/12/25 07:28:47;;;;;;;4.65;2.88;;;19.90;91.00;;;;;;5016929;28;20214;-85
2023/12/25 07:31:16;;;;;;;3.55;2.70;;;19.90;91.20;;;;;;5018448;28;20227;-85
2023/12/25 07:33:43;;;;;;;8.60;5.82;;;19.90;91.30;;;;;;5016917;28;20207;-84
2023/12/25 07:36:11;;;;;;;2.67;2.35;;;19.90;91.10;;;;;;5017359;28;20199;-84
2023/12/25 07:38:39;;;;;;;6.20;2.78;;;19.90;91.10;;;;;;5016142;28;20219;-84
2023/12/25 07:41:08;;;;;;;3.33;2.50;;;19.90;91.10;;;;;;5014721;28;20671;-84
2023/12/25 07:43:35;;;;;;;3.53;2.35;;;19.90;91.40;;;;;;5014948;28;20685;-85
2023/12/25 07:46:02;;;;;;;2.78;2.13;;;19.90;91.50;;;;;;5014790;28;20662;-84
2023/12/25 07:48:29;;;;;;;3.55;2.40;;;19.90;91.60;;;;;;5015846;28;20289;-85
2023/12/25 07:50:56;;;;;;;2.72;2.13;;;20.00;91.80;;;;;;5017439;28;20207;-84
2023/12/25 07:53:24;;;;;;;2.40;1.98;;;20.00;91.70;;;;;;5020360;28;20219;-84
2023/12/25 07:55:51;;;;;;;4.40;2.58;;;20.00;91.60;;;;;;5015510;28;20199;-85
2023/12/25 07:58:18;;;;;;;2.60;2.40;;;20.00;91.50;;;;;;5018018;28;20247;-83
2023/12/25 08:00:44;;;;;;;3.15;2.03;;;20.10;91.70;;;;;;5021114;28;20670;-85
2023/12/25 08:03:11;;;;;;;5.22;2.38;;;20.10;91.60;;;;;;5018502;28;20671;-85
2023/12/25 08:05:38;;;;;;;3.05;2.00;;;20.10;91.50;;;;;;5017516;28;20199;-85
2023/12/25 08:08:06;;;;;;;3.17;1.98;;;20.10;91.50;;;;;;5015151;28;20276;-85
2023/12/25 08:10:34;;;;;;;2.00;1.80;;;20.10;91.50;;;;;;5020228;28;20212;-85
2023/12/25 08:13:02;;;;;;;2.95;1.88;;;20.10;91.50;;;;;;5018825;28;20203;-85
2023/12/25 08:15:28;;;;;;;2.60;1.93;;;20.10;91.40;;;;;;5021148;28;20206;-85
2023/12/25 08:17:56;;;;;;;2.13;1.92;;;20.20;91.70;;;;;;5020831;28;20472;-86
2023/12/25 08:20:23;;;;;;;3.88;2.33;;;20.20;92.20;;;;;;5022650;28;20210;-87
2023/12/25 08:22:49;;;;;;;4.30;2.42;;;20.20;91.90;;;;;;5021820;28;20211;-87
2023/12/25 08:25:16;;;;;;;3.92;2.58;;;20.20;91.80;;;;;;5022706;28;25217;-86
2023/12/25 08:27:44;;;;;;;2.28;1.70;;;20.20;91.90;;;;;;5019387;28;20222;-85
2023/12/25 08:30:12;;;;;;;2.10;1.65;;;20.30;92.00;;;;;;5016954;28;20210;-85
2023/12/25 08:32:39;;;;;;;1.90;1.70;;;20.20;92.30;;;;;;5019120;28;20210;-85
2023/12/25 08:35:06;;;;;;;2.15;1.90;;;20.30;92.00;;;;;;5023459;28;20196;-85
2023/12/25 08:37:33;;;;;;;3.17;2.05;;;20.30;92.00;;;;;;5022351;28;20204;-84
2023/12/25 08:40:00;;;;;;;3.40;2.17;;;20.30;91.80;;;;;;5021907;28;20571;-84
2023/12/25 08:42:26;;;;;;;3.60;1.90;;;20.30;91.70;;;;;;5023735;28;20214;-83
2023/12/25 08:44:55;;;;;;;1.77;1.60;;;20.40;91.80;;;;;;5024087;28;20196;-85
2023/12/25 08:47:22;;;;;;;3.17;1.98;;;20.40;91.90;;;;;;5022571;28;21103;-86
2023/12/25 08:49:49;;;;;;;2.22;1.73;;;20.40;91.70;;;;;;5019456;28;20234;-84
2023/12/25 08:52:18;;;;;;;2.83;1.65;;;20.40;91.70;;;;;;5017835;28;20196;-85
2023/12/25 08:54:45;;;;;;;2.53;1.60;;;20.40;91.70;;;;;;5020376;28;20204;-85
2023/12/25 08:57:12;;;;;;;2.22;1.77;;;20.40;91.60;;;;;;5020507;28;20192;-86
2023/12/25 08:59:39;;;;;;;2.70;1.55;;;20.40;91.70;;;;;;5019408;28;20696;-85
2023/12/25 09:02:07;;;;;;;1.67;1.55;;;20.40;91.60;;;;;;5018695;28;20210;-85
2023/12/25 09:04:35;;;;;;;3.05;2.05;;;20.40;91.60;;;;;;5020606;28;20211;-84
2023/12/25 09:07:02;;;;;;;2.42;1.50;;;20.40;91.80;;;;;;5013764;28;20236;-85
2023/12/25 09:09:28;;;;;;;2.15;1.77;;;20.40;91.80;;;;;;5022825;28;20204;-86
2023/12/25 09:11:56;;;;;;;2.08;1.65;;;19.90;91.30;;;;;;5018923;28;20207;-85
2023/12/25 09:14:22;;;;;;;1.58;1.48;;;20.40;91.60;;;;;;5018933;28;20787;-82
2023/12/25 09:16:49;;;;;;;3.55;1.67;;;20.40;91.50;;;;;;5015811;28;20204;-85
2023/12/25 09:19:17;;;;;;;1.75;1.48;;;20.50;91.50;;;;;;5016007;28;20226;-86
2023/12/25 09:21:46;;;;;;;6.03;2.03;;;20.50;91.40;;;;;;5017722;28;20224;-88
2023/12/25 09:24:13;;;;;;;1.52;1.38;;;20.50;91.70;;;;;;5021680;28;20202;-87
2023/12/25 09:26:40;;;;;;;2.33;1.67;;;20.50;91.80;;;;;;5022481;28;20215;-87
2023/12/25 09:29:09;;;;;;;3.10;2.07;;;20.50;92.20;;;;;;5013395;28;20768;-88
2023/12/25 09:31:36;;;;;;;2.30;1.40;;;20.50;92.40;;;;;;5019002;28;20465;-83
2023/12/25 09:34:02;;;;;;;2.25;1.63;;;20.60;92.30;;;;;;5021296;28;20476;-80
2023/12/25 09:36:31;;;;;;;2.70;1.75;;;20.50;92.40;;;;;;5020880;28;20214;-81
2023/12/25 09:38:57;;;;;;;1.57;1.20;;;20.60;92.40;;;;;;5017901;28;20265;-85
2023/12/25 09:41:25;;;;;;;2.70;1.50;;;20.60;92.60;;;;;;5015765;28;20463;-81
2023/12/25 09:43:54;;;;;;;2.10;1.40;;;20.60;92.60;;;;;;5016093;28;20214;-84
2023/12/25 09:46:21;;;;;;;2.97;1.98;;;20.60;92.50;;;;;;5021909;28;20203;-85
2023/12/25 09:48:48;;;;;;;4.07;1.63;;;20.60;92.60;;;;;;5017115;28;20206;-85
2023/12/25 09:51:17;;;;;;;3.75;1.65;;;20.60;93.20;;;;;;5013092;28;21217;-87
2023/12/25 09:53:45;;;;;;;4.55;1.40;;;20.60;92.80;;;;;;5018436;28;20210;-91
2023/12/25 09:56:13;;;;;;;1.95;1.20;;;20.70;93.40;;;;;;5019628;28;20212;-88
2023/12/25 09:58:41;;;;;;;1.65;1.17;;;20.60;93.00;;;;;;5016417;28;20199;-88
2023/12/25 10:01:08;;;;;;;2.35;1.55;;;20.60;92.60;;;;;;5018377;28;20203;-89
2023/12/25 10:03:36;;;;;;;2.03;1.30;;;20.60;93.00;;;;;;5019349;28;20200;-89
2023/12/25 10:06:03;;;;;;;2.53;1.20;;;20.60;93.10;;;;;;5017956;28;20575;-90
2023/12/25 10:08:31;;;;;;;5.50;1.48;;;20.60;93.10;;;;;;5018905;28;20194;-90
2023/12/25 10:10:59;;;;;;;3.15;1.60;;;20.60;92.90;;;;;;5019061;28;20204;-90
2023/12/25 10:13:26;;;;;;;1.95;1.20;;;20.60;92.90;;;;;;5017942;28;20204;-88
2023/12/25 10:15:53;;;;;;;1.55;1.10;;;20.60;92.90;;;;;;5020133;28;20207;-87
2023/12/25 10:18:20;;;;;;;2.63;1.20;;;20.60;92.50;;;;;;5019266;28;20203;-88
2023/12/25 10:20:56;;;;;;;1.95;1.35;;;20.60;92.40;;;;;;5018843;28;20223;-88
2023/12/25 10:23:30;;;;;;;1.80;1.45;;;20.60;92.40;;;;;;5019588;28;20202;-88
2023/12/25 10:26:02;;;;;;;3.37;1.00;;;20.60;92.40;;;;;;5019237;28;20203;-87
2023/12/25 10:28:30;;;;;;;1.43;0.90;;;20.60;92.30;;;;;;5016691;28;20566;-88
2023/12/25 10:31:01;;;;;;;1.70;1.30;;;20.60;92.20;;;;;;5018276;28;20475;-87
2023/12/25 10:33:28;;;;;;;1.20;1.00;;;20.60;92.20;;;;;;5019197;28;20207;-88
2023/12/25 10:36:05;;;;;;;3.92;1.17;;;20.60;92.10;;;;;;5019969;28;20470;-90
2023/12/25 10:38:34;;;;;;;1.35;1.25;;;20.60;92.10;;;;;;5016500;28;20199;-89
2023/12/25 10:41:18;;;;;;;2.33;1.35;;;20.60;92.00;;;;;;5020342;28;20230;-90
2023/12/25 10:43:52;;;;;;;1.95;1.00;;;20.60;92.00;;;;;;5017940;28;20203;-91
2023/12/25 10:46:21;;;;;;;2.63;1.20;;;20.60;91.90;;;;;;5021306;28;20566;-89
2023/12/25 10:48:50;;;;;;;1.73;1.20;;;20.60;91.80;;;;;;5014414;28;20199;-89
2023/12/25 10:51:27;;;;;;;1.60;1.13;;;20.60;91.70;;;;;;5017585;28;20214;-88
2023/12/25 10:53:59;;;;;;;1.67;1.33;;;20.60;91.80;;;;;;5017274;28;20191;-88
2023/12/25 10:56:28;;;;;;;1.60;1.10;;;20.60;91.70;;;;;;5022692;28;20784;-89
2023/12/25 10:59:01;;;;;;;2.33;1.20;;;20.60;91.60;;;;;;5019510;28;20212;-90
2023/12/25 11:01:31;;;;;;;1.40;1.15;;;20.60;91.70;;;;;;5021343;28;20453;-91
2023/12/25 11:03:58;;;;;;;2.40;1.20;;;20.60;91.70;;;;;;5021180;28;20874;-89
2023/12/25 11:06:26;;;;;;;1.88;1.30;;;20.60;91.60;;;;;;5019088;28;20227;-89
2023/12/25 11:08:53;;;;;;;1.50;1.10;;;20.60;91.60;;;;;;5020525;28;20210;-89
2023/12/25 11:11:23;;;;;;;2.42;1.20;;;20.60;91.70;;;;;;5021536;28;20603;-89
2023/12/25 11:13:52;;;;;;;1.45;1.13;;;20.60;91.60;;;;;;5015684;28;20286;-88
2023/12/25 11:16:18;;;;;;;1.38;0.85;;;20.60;91.60;;;;;;5023135;28;20202;-89
2023/12/25 11:18:46;;;;;;;2.20;1.20;;;20.60;91.40;;;;;;5019085;28;20208;-89
2023/12/25 11:21:18;;;;;;;1.75;1.38;;;20.60;91.50;;;;;;5018755;28;20214;-89
2023/12/25 11:23:48;;;;;;;1.50;1.20;;;20.60;91.40;;;;;;5023092;28;20987;-88
2023/12/25 11:26:16;;;;;;;1.45;1.00;;;20.60;91.50;;;;;;5023300;28;20206;-87
2023/12/25 11:28:44;;;;;;;1.20;0.88;;;20.70;91.50;;;;;;5014651;28;20889;-85
2023/12/25 11:31:21;;;;;;;1.98;1.02;;;20.70;91.70;;;;;;5017171;28;20204;-87
2023/12/25 11:33:48;;;;;;;2.28;1.30;;;20.70;92.50;;;;;;5015668;28;20868;-87
2023/12/25 11:36:16;;;;;;;1.10;0.90;;;20.70;92.90;;;;;;5014790;28;20680;-85
2023/12/25 11:38:45;;;;;;;1.23;0.87;;;20.70;92.70;;;;;;5016580;28;20302;-87
2023/12/25 11:41:18;;;;;;;2.08;1.05;;;20.70;92.90;;;;;;5014499;28;20600;-86
2023/12/25 11:43:47;;;;;;;1.50;1.03;;;20.70;92.70;;;;;;5013166;28;20199;-86
2023/12/25 11:46:19;;;;;;;4.90;1.27;;;20.70;92.50;;;;;;5017667;28;20461;-87
2023/12/25 11:48:48;;;;;;;1.50;1.10;;;20.70;92.80;;;;;;5016701;28;20461;-88
2023/12/25 11:51:26;;;;;;;7.47;1.13;;;20.70;93.30;;;;;;5015276;28;20470;-89
2023/12/25 11:53:56;;;;;;;1.40;1.00;;;20.70;92.90;;;;;;5022059;28;21145;-87
2023/12/25 11:56:24;;;;;;;6.30;1.00;;;20.80;92.80;;;;;;5022748;28;20805;-89
2023/12/25 11:58:53;;;;;;;1.90;1.17;;;20.80;93.10;;;;;;5015447;28;24246;-85
2023/12/25 12:01:22;;;;;;;4.53;1.00;;;20.80;93.20;;;;;;5013968;28;20848;-86
2023/12/25 12:03:50;;;;;;;1.80;1.07;;;20.80;93.30;;;;;;5015466;28;20202;-86
2023/12/25 12:06:19;;;;;;;1.10;0.90;;;20.80;93.30;;;;;;5015357;28;24730;-87
2023/12/25 12:08:48;;;;;;;2.28;1.02;;;20.60;93.10;;;;;;5013282;28;20237;-88
2023/12/25 12:11:16;;;;;;;1.30;0.80;;;20.90;93.40;;;;;;5017833;28;20208;-90
2023/12/25 12:13:44;;;;;;;1.90;1.20;;;20.90;93.20;;;;;;5020130;28;20483;-89
2023/12/25 12:16:12;;;;;;;1.17;1.00;;;20.90;93.50;;;;;;5019852;28;20814;-87
2023/12/25 12:18:40;;;;;;;4.80;1.10;;;20.70;93.20;;;;;;5018269;28;20458;-87
2023/12/25 12:21:07;;;;;;;1.63;0.90;;;21.00;93.20;;;;;;5015868;28;20481;-89
2023/12/25 12:23:39;;;;;;;1.27;0.90;;;21.00;93.20;;;;;;5022740;28;20487;-90
2023/12/25 12:26:17;;;;;;;1.97;1.40;;;21.00;93.10;;;;;;5050707;28;20413;-89
2023/12/25 12:28:44;;;;;;;5.03;1.47;;;21.10;93.20;;;;;;5030544;28;20445;-88
2023/12/25 12:31:20;;;;;;;1.20;1.00;;;21.10;93.80;;;;;;5031713;28;20552;-92
2023/12/25 12:33:51;;;;;;;1.27;1.10;;;21.10;93.40;;;;;;5024154;28;20465;-89
2023/12/25 12:36:18;;;;;;;1.30;0.90;;;21.10;93.10;;;;;;5015252;28;20458;-83
2023/12/25 12:38:45;;;;;;;2.40;1.10;;;21.20;93.00;;;;;;5017223;28;21046;-82
2023/12/25 12:41:13;;;;;;;1.10;0.90;;;21.20;93.00;;;;;;5014761;28;20474;-83
2023/12/25 12:43:40;;;;;;;2.80;1.10;;;21.20;93.10;;;;;;5013588;28;20543;-85
2023/12/25 12:46:15;;;;;;;2.33;1.00;;;21.20;93.10;;;;;;5018642;28;20461;-83
2023/12/25 12:48:43;;;;;;;2.50;1.10;;;21.20;93.30;;;;;;5018401;28;20447;-89